EmailTwitter


Surface observations / Quebec / CYUL (71627)

Regions: Quebec | Canada | USA | Europe | France | UK | Elsewhere
Station
Display
Info & Location for CYUL (71627) | Help decoding METAR

Weather Conditions observed on 2019/04/20 at 10:00 UTC at MONTREAL INTL A, QB (CYUL)

Sky conditions: overcast.

Obstruction(s) to Vision: light rain.

Temperature: 5.0 Celsius.

Dewpoint: 4.0 Celsius.

Relative Humidity: 93%

Windchill Factor: 0.

Windchill Factor (Gusts): -1.

Winds: Northeast at 35 km/h or 19 knots.

Gust: 48 km/h or 26 knots.

Mean Sea level Pressure: 100.86 kilopascals.

Altimeter Setting (QNH): 100.85 kilopascals or 29.78 inches of mercury.

Horizontal visibility: 8.00 statute miles or 12.80 kilometers.

Height of the Ceiling: 366 metres ( 1200 feet ).

Coded METAR:

CYUL 201000Z 04019G26KT 8SM -RA FEW009 OVC012 05/04 A2978 RMK SF2SC6 SLP086=